createdAt,value
2023-05-03T00:00:52.596Z,100.00
2023-05-03T00:03:23.992Z,100.00
2023-05-03T00:05:52.467Z,100.00
2023-05-03T00:08:21.984Z,100.00
2023-05-03T00:10:50.224Z,100.00
2023-05-03T00:13:18.640Z,100.00
2023-05-03T00:15:46.958Z,100.00
2023-05-03T00:18:16.375Z,100.00
2023-05-03T00:20:45.108Z,100.00
2023-05-03T00:23:14.064Z,100.00
2023-05-03T00:25:42.377Z,100.00
2023-05-03T00:28:11.179Z,100.00
2023-05-03T00:30:39.477Z,100.00
2023-05-03T00:33:08.755Z,100.00
2023-05-03T00:35:37.209Z,100.00
2023-05-03T00:38:06.253Z,100.00
2023-05-03T00:40:35.024Z,100.00
2023-05-03T00:43:03.727Z,100.00
2023-05-03T00:45:34.333Z,100.00
2023-05-03T00:48:03.051Z,100.00
2023-05-03T00:50:31.644Z,100.00
2023-05-03T00:53:01.107Z,100.00
2023-05-03T00:55:31.724Z,100.00
2023-05-03T00:58:00.199Z,100.00
2023-05-03T01:00:28.577Z,100.00
2023-05-03T01:02:57.122Z,100.00
2023-05-03T01:05:33.395Z,100.00
2023-05-03T01:08:09.910Z,100.00
2023-05-03T01:10:47.560Z,100.00
2023-05-03T01:13:19.447Z,100.00
2023-05-03T01:16:10.697Z,100.00
2023-05-03T01:18:44.428Z,100.00
2023-05-03T01:21:16.079Z,100.00
2023-05-03T01:23:54.835Z,100.00
2023-05-03T01:26:26.038Z,100.00
2023-05-03T01:28:56.236Z,100.00
2023-05-03T01:31:44.833Z,100.00
2023-05-03T01:34:21.876Z,100.00
2023-05-03T01:36:54.237Z,100.00
2023-05-03T01:39:56.085Z,100.00
2023-05-03T01:42:26.145Z,100.00
2023-05-03T01:44:55.990Z,100.00
2023-05-03T01:47:24.399Z,100.00
2023-05-03T01:49:53.591Z,100.00
2023-05-03T01:52:23.705Z,100.00
2023-05-03T01:54:51.931Z,100.00
2023-05-03T01:57:20.116Z,100.00
2023-05-03T01:59:48.367Z,100.00
2023-05-03T02:02:16.603Z,100.00
2023-05-03T02:04:44.784Z,100.00
2023-05-03T02:07:13.981Z,100.00
2023-05-03T02:09:42.623Z,100.00
2023-05-03T02:12:11.678Z,100.00
2023-05-03T02:14:39.944Z,100.00
2023-05-03T02:17:08.601Z,100.00
2023-05-03T02:19:37.020Z,100.00
2023-05-03T02:22:05.297Z,100.00
2023-05-03T02:24:36.439Z,100.00
2023-05-03T02:27:05.108Z,100.00
2023-05-03T02:29:33.379Z,100.00
2023-05-03T02:32:02.169Z,100.00
2023-05-03T02:34:32.988Z,100.00
2023-05-03T02:37:01.327Z,100.00
2023-05-03T02:39:29.945Z,100.00
2023-05-03T02:41:59.724Z,100.00
2023-05-03T02:44:33.510Z,100.00
2023-05-03T02:47:02.089Z,100.00
2023-05-03T02:49:31.375Z,100.00
2023-05-03T02:52:00.773Z,100.00
2023-05-03T02:54:29.138Z,100.00
2023-05-03T02:57:02.304Z,100.00
2023-05-03T02:59:33.588Z,100.00
2023-05-03T03:02:02.222Z,100.00
2023-05-03T03:04:31.193Z,100.00
2023-05-03T03:06:59.497Z,100.00
2023-05-03T03:09:27.811Z,100.00
2023-05-03T03:11:56.131Z,100.00
2023-05-03T03:14:24.510Z,100.00
2023-05-03T03:16:52.999Z,100.00
2023-05-03T03:19:21.295Z,100.00
2023-05-03T03:21:49.472Z,100.00
2023-05-03T03:24:17.643Z,100.00
2023-05-03T03:26:46.402Z,100.00
2023-05-03T03:29:14.766Z,100.00
2023-05-03T03:31:43.997Z,100.00
2023-05-03T03:34:14.632Z,100.00
2023-05-03T03:36:43.761Z,100.00
2023-05-03T03:39:12.227Z,100.00
2023-05-03T03:41:42.020Z,100.00
2023-05-03T03:44:10.453Z,100.00
2023-05-03T03:46:39.596Z,100.00
2023-05-03T03:49:08.294Z,100.00
2023-05-03T03:51:37.615Z,100.00
2023-05-03T03:54:06.583Z,100.00
2023-05-03T03:56:35.896Z,100.00
2023-05-03T03:59:04.338Z,100.00
2023-05-03T04:01:33.314Z,100.00
2023-05-03T04:04:01.794Z,100.00
2023-05-03T04:06:33.245Z,100.00
2023-05-03T04:09:03.336Z,100.00
2023-05-03T04:11:32.201Z,100.00
2023-05-03T04:14:02.982Z,100.00
2023-05-03T04:16:31.677Z,100.00
2023-05-03T04:19:01.925Z,100.00
2023-05-03T04:21:30.362Z,100.00
2023-05-03T04:24:00.465Z,100.00
2023-05-03T04:26:32.218Z,100.00
2023-05-03T04:29:20.721Z,100.00
2023-05-03T04:31:49.289Z,100.00
2023-05-03T04:34:19.129Z,100.00
2023-05-03T04:36:49.289Z,100.00
2023-05-03T04:39:18.713Z,100.00
2023-05-03T04:41:48.227Z,100.00
2023-05-03T04:44:17.516Z,100.00
2023-05-03T04:47:12.031Z,100.00
2023-05-03T04:49:42.023Z,100.00
2023-05-03T04:52:10.854Z,100.00
2023-05-03T04:54:39.286Z,100.00
2023-05-03T04:57:09.722Z,100.00
2023-05-03T04:59:38.576Z,100.00
2023-05-03T05:02:07.054Z,100.00
2023-05-03T05:04:35.696Z,100.00
2023-05-03T05:07:04.181Z,100.00
2023-05-03T05:09:34.482Z,100.00
2023-05-03T05:12:04.282Z,100.00
2023-05-03T05:14:38.475Z,100.00
2023-05-03T05:17:07.796Z,100.00
2023-05-03T05:19:36.093Z,100.00
2023-05-03T05:22:05.022Z,100.00
2023-05-03T05:24:53.547Z,100.00
2023-05-03T05:27:23.810Z,100.00
2023-05-03T05:29:53.589Z,100.00
2023-05-03T05:32:22.697Z,100.00
2023-05-03T05:34:55.686Z,100.00
2023-05-03T05:37:26.608Z,100.00
2023-05-03T05:39:56.039Z,100.00
2023-05-03T05:42:27.195Z,100.00
2023-05-03T05:44:57.898Z,100.00
2023-05-03T05:47:27.497Z,100.00
2023-05-03T05:49:57.041Z,100.00
2023-05-03T05:52:25.409Z,100.00
2023-05-03T05:54:54.108Z,100.00
2023-05-03T05:57:22.997Z,100.00
2023-05-03T05:59:52.692Z,100.00
2023-05-03T06:02:25.020Z,100.00
2023-05-03T06:04:54.014Z,100.00
2023-05-03T06:07:22.830Z,100.00
2023-05-03T06:09:51.785Z,100.00
2023-05-03T06:12:20.052Z,100.00
2023-05-03T06:15:01.522Z,100.00
2023-05-03T06:17:35.911Z,100.00
2023-05-03T06:20:05.177Z,100.00
2023-05-03T06:22:34.350Z,100.00
2023-05-03T06:25:02.641Z,100.00
2023-05-03T06:27:31.312Z,100.00
2023-05-03T06:29:59.732Z,100.00
2023-05-03T06:32:31.436Z,100.00
2023-05-03T06:35:00.388Z,100.00
2023-05-03T06:37:28.637Z,100.00
2023-05-03T06:39:57.291Z,100.00
2023-05-03T06:42:25.868Z,100.00
2023-05-03T06:45:06.627Z,100.00
2023-05-03T06:47:35.320Z,100.00
2023-05-03T06:50:04.221Z,100.00
2023-05-03T06:52:33.504Z,100.00
2023-05-03T06:55:01.730Z,100.00
2023-05-03T06:57:29.972Z,100.00
2023-05-03T06:59:59.749Z,100.00
2023-05-03T07:02:29.220Z,100.00
2023-05-03T07:04:57.527Z,100.00
2023-05-03T07:07:26.660Z,100.00
2023-05-03T07:09:54.978Z,100.00
2023-05-03T07:12:27.772Z,100.00
2023-05-03T07:14:56.281Z,100.00
2023-05-03T07:17:26.231Z,100.00
2023-05-03T07:19:55.109Z,100.00
2023-05-03T07:22:26.859Z,100.00
2023-05-03T07:24:55.965Z,100.00
2023-05-03T07:27:24.308Z,100.00
2023-05-03T07:29:52.983Z,100.00
2023-05-03T07:32:21.993Z,100.00
2023-05-03T07:34:50.252Z,100.00
2023-05-03T07:37:18.645Z,100.00
2023-05-03T07:39:46.946Z,100.00
2023-05-03T07:42:15.120Z,100.00
2023-05-03T07:44:43.519Z,100.00
2023-05-03T07:47:12.425Z,100.00
2023-05-03T07:49:40.701Z,100.00
2023-05-03T07:52:10.253Z,100.00
2023-05-03T07:54:39.218Z,100.00
2023-05-03T07:57:08.937Z,100.00
2023-05-03T07:59:39.893Z,100.00
2023-05-03T08:02:08.328Z,100.00
2023-05-03T08:04:36.824Z,100.00
2023-05-03T08:07:05.426Z,100.00
2023-05-03T08:09:33.838Z,100.00
2023-05-03T08:12:03.282Z,100.00
2023-05-03T08:14:31.553Z,100.00
2023-05-03T08:17:00.832Z,100.00
2023-05-03T08:19:29.044Z,100.00
2023-05-03T08:21:58.379Z,100.00
2023-05-03T08:24:27.116Z,100.00
2023-05-03T08:26:55.816Z,100.00
2023-05-03T08:29:25.636Z,100.00
2023-05-03T08:31:55.389Z,100.00
2023-05-03T08:34:23.666Z,100.00
2023-05-03T08:36:52.262Z,100.00
2023-05-03T08:39:20.480Z,100.00
2023-05-03T08:41:48.825Z,100.00
2023-05-03T08:44:24.429Z,100.00
2023-05-03T08:46:53.055Z,100.00
2023-05-03T08:49:21.886Z,100.00
2023-05-03T08:51:52.029Z,100.00
2023-05-03T08:54:22.198Z,100.00
2023-05-03T08:56:51.381Z,100.00
2023-05-03T08:59:19.595Z,100.00
2023-05-03T09:01:48.883Z,100.00
2023-05-03T09:04:17.571Z,100.00
2023-05-03T09:06:46.892Z,99.99
2023-05-03T09:09:16.238Z,100.00
2023-05-03T09:11:44.524Z,100.00
2023-05-03T09:14:18.754Z,100.00
2023-05-03T09:16:47.414Z,99.41
2023-05-03T09:19:16.621Z,99.30
2023-05-03T09:21:50.787Z,99.20
2023-05-03T09:24:22.931Z,99.13
2023-05-03T09:26:52.294Z,98.42
2023-05-03T09:29:32.224Z,99.71
2023-05-03T09:32:03.003Z,99.99
2023-05-03T09:34:32.698Z,100.00
2023-05-03T09:37:02.425Z,100.00
2023-05-03T09:39:31.108Z,100.00
2023-05-03T09:42:00.474Z,100.00
2023-05-03T09:45:02.113Z,100.00
2023-05-03T09:47:32.401Z,100.00
2023-05-03T09:50:01.556Z,100.00
2023-05-03T09:52:31.112Z,100.00
2023-05-03T09:55:02.112Z,100.00
2023-05-03T09:57:30.681Z,99.68
2023-05-03T09:59:59.656Z,98.35
2023-05-03T10:02:32.857Z,98.93
2023-05-03T10:05:06.010Z,98.82
2023-05-03T10:07:35.295Z,99.27
2023-05-03T10:10:05.075Z,100.00
2023-05-03T10:12:36.509Z,100.00
2023-05-03T10:15:08.884Z,100.00
2023-05-03T10:20:23.130Z,98.54
2023-05-03T10:23:11.884Z,97.12
2023-05-03T10:26:13.847Z,97.31
2023-05-03T10:28:43.750Z,98.02
2023-05-03T10:31:45.282Z,97.44
2023-05-03T10:34:31.474Z,97.94
2023-05-03T10:37:04.261Z,97.80
2023-05-03T10:39:32.551Z,99.24
2023-05-03T10:42:09.391Z,99.86
2023-05-03T10:44:51.379Z,99.30
2023-05-03T10:47:25.146Z,98.40
2023-05-03T10:50:12.201Z,97.71
2023-05-03T10:52:41.144Z,99.20
2023-05-03T10:55:11.129Z,99.62
2023-05-03T10:57:44.179Z,99.38
2023-05-03T11:00:18.431Z,98.81
2023-05-03T11:03:19.075Z,98.49
2023-05-03T11:05:52.492Z,99.93
2023-05-03T11:08:30.968Z,100.00
2023-05-03T11:11:00.792Z,100.00
2023-05-03T11:13:30.627Z,100.00
2023-05-03T11:16:00.403Z,100.00
2023-05-03T11:18:28.776Z,100.00
2023-05-03T11:20:57.790Z,100.00
2023-05-03T11:23:30.306Z,100.00
2023-05-03T11:25:58.985Z,100.00
2023-05-03T11:28:29.795Z,100.00
2023-05-03T11:30:59.409Z,100.00
2023-05-03T11:33:31.125Z,100.00
2023-05-03T11:36:03.893Z,100.00
2023-05-03T11:38:36.546Z,100.00
2023-05-03T11:41:19.162Z,100.00
2023-05-03T11:43:54.840Z,100.00
2023-05-03T11:46:26.788Z,100.00
2023-05-03T11:48:57.019Z,100.00
2023-05-03T11:51:27.596Z,100.00
2023-05-03T11:54:06.840Z,100.00
2023-05-03T11:56:42.129Z,100.00
2023-05-03T11:59:10.501Z,100.00
2023-05-03T12:01:38.960Z,100.00
2023-05-03T12:04:07.540Z,100.00
2023-05-03T12:06:39.996Z,100.00
2023-05-03T12:09:15.880Z,100.00
2023-05-03T12:11:47.983Z,100.00
2023-05-03T12:14:19.679Z,100.00
2023-05-03T12:16:52.191Z,100.00
2023-05-03T12:19:32.902Z,100.00
2023-05-03T12:24:35.179Z,100.00
2023-05-03T12:27:07.070Z,100.00
2023-05-03T12:29:37.210Z,99.71
2023-05-03T12:32:07.709Z,99.91
2023-05-03T12:34:41.561Z,100.00
2023-05-03T12:37:11.944Z,100.00
2023-05-03T12:39:45.794Z,100.00
2023-05-03T12:42:16.841Z,100.00
2023-05-03T12:44:48.142Z,100.00
2023-05-03T12:47:23.950Z,100.00
2023-05-03T12:49:59.636Z,100.00
2023-05-03T12:55:03.014Z,100.00
2023-05-03T12:57:37.106Z,100.00
2023-05-03T13:00:14.072Z,100.00
2023-05-03T13:07:55.589Z,100.00
2023-05-03T13:10:27.189Z,100.00
2023-05-03T13:12:57.285Z,100.00
2023-05-03T13:15:27.427Z,100.00
2023-05-03T13:17:57.344Z,100.00
2023-05-03T13:20:25.676Z,100.00
2023-05-03T13:22:53.863Z,100.00
2023-05-03T13:25:22.339Z,100.00
2023-05-03T13:27:53.228Z,100.00
2023-05-03T13:30:23.481Z,100.00
2023-05-03T13:32:52.650Z,100.00
2023-05-03T13:35:20.902Z,100.00
2023-05-03T13:37:49.052Z,100.00
2023-05-03T13:40:17.570Z,100.00
2023-05-03T13:42:46.497Z,100.00
2023-05-03T13:45:15.796Z,100.00
2023-05-03T13:50:18.226Z,100.00
2023-05-03T13:52:46.653Z,100.00
2023-05-03T13:55:14.907Z,100.00
2023-05-03T13:57:43.894Z,100.00
2023-05-03T14:00:13.445Z,100.00
2023-05-03T14:02:42.631Z,100.00
2023-05-03T14:05:11.074Z,100.00
2023-05-03T14:07:41.125Z,100.00
2023-05-03T14:10:11.004Z,100.00
2023-05-03T14:12:40.128Z,100.00
2023-05-03T14:15:09.063Z,100.00
2023-05-03T14:17:37.639Z,100.00
2023-05-03T14:20:08.364Z,100.00
2023-05-03T14:22:36.927Z,100.00
2023-05-03T14:25:05.659Z,100.00
2023-05-03T14:27:34.046Z,100.00
2023-05-03T14:30:02.620Z,100.00
2023-05-03T14:32:32.793Z,100.00
2023-05-03T14:35:02.189Z,100.00
2023-05-03T14:37:31.424Z,100.00
2023-05-03T14:39:59.979Z,100.00
2023-05-03T14:42:32.372Z,100.00
2023-05-03T14:45:00.638Z,100.00
2023-05-03T14:47:29.372Z,100.00
2023-05-03T14:49:57.842Z,100.00
2023-05-03T14:52:26.317Z,100.00
2023-05-03T14:54:54.987Z,100.00
2023-05-03T14:57:25.833Z,100.00
2023-05-03T14:59:55.070Z,100.00
2023-05-03T15:02:23.609Z,100.00
2023-05-03T15:04:52.894Z,100.00
2023-05-03T15:07:21.419Z,100.00
2023-05-03T15:09:49.835Z,100.00
2023-05-03T15:12:18.063Z,100.00
2023-05-03T15:14:47.606Z,100.00
2023-05-03T15:17:16.949Z,100.00
2023-05-03T15:19:45.904Z,100.00
2023-05-03T15:22:14.252Z,100.00
2023-05-03T15:24:42.799Z,100.00
2023-05-03T15:27:13.116Z,100.00
2023-05-03T15:29:42.163Z,100.00
2023-05-03T15:32:10.898Z,100.00
2023-05-03T15:34:39.793Z,100.00
2023-05-03T15:37:12.467Z,100.00
2023-05-03T15:39:40.883Z,100.00
2023-05-03T15:42:09.227Z,100.00
2023-05-03T15:44:37.484Z,100.00
2023-05-03T15:47:06.001Z,100.00
2023-05-03T15:49:34.415Z,100.00
2023-05-03T15:52:03.293Z,100.00
2023-05-03T15:54:31.647Z,100.00
2023-05-03T15:57:00.120Z,100.00
2023-05-03T15:59:28.742Z,100.00
2023-05-03T16:01:57.038Z,100.00
2023-05-03T16:04:26.132Z,100.00
2023-05-03T16:06:54.461Z,100.00
2023-05-03T16:09:23.154Z,100.00
2023-05-03T16:11:52.648Z,100.00
2023-05-03T16:14:22.560Z,100.00
2023-05-03T16:16:51.445Z,100.00
2023-05-03T16:19:19.767Z,100.00
2023-05-03T16:21:51.114Z,100.00
2023-05-03T16:24:19.646Z,100.00
2023-05-03T16:26:51.159Z,100.00
2023-05-03T16:29:22.237Z,100.00
2023-05-03T16:31:53.449Z,100.00
2023-05-03T16:34:25.698Z,100.00
2023-05-03T16:36:56.158Z,100.00
2023-05-03T16:39:27.135Z,100.00
2023-05-03T16:41:56.514Z,100.00
2023-05-03T16:44:27.511Z,100.00
2023-05-03T16:46:55.753Z,100.00
2023-05-03T16:49:23.974Z,100.00
2023-05-03T16:51:56.814Z,100.00
2023-05-03T16:54:26.226Z,100.00
2023-05-03T16:56:54.788Z,100.00
2023-05-03T16:59:23.672Z,100.00
2023-05-03T17:01:52.076Z,100.00
2023-05-03T17:04:20.317Z,100.00
2023-05-03T17:06:48.942Z,100.00
2023-05-03T17:09:17.567Z,100.00
2023-05-03T17:11:46.124Z,100.00
2023-05-03T17:14:14.432Z,100.00
2023-05-03T17:16:46.974Z,100.00
2023-05-03T17:19:15.789Z,100.00
2023-05-03T17:21:44.070Z,100.00
2023-05-03T17:24:12.323Z,100.00
2023-05-03T17:26:43.433Z,100.00
2023-05-03T17:29:15.530Z,100.00
2023-05-03T17:31:44.114Z,100.00
2023-05-03T17:34:12.445Z,100.00
2023-05-03T17:36:43.752Z,100.00
2023-05-03T17:39:17.332Z,100.00
2023-05-03T17:41:45.464Z,100.00
2023-05-03T17:44:14.515Z,100.00
2023-05-03T17:46:45.047Z,100.00
2023-05-03T17:49:13.402Z,100.00
2023-05-03T17:51:42.555Z,100.00
2023-05-03T17:54:13.297Z,100.00
2023-05-03T17:56:44.310Z,100.00
2023-05-03T17:59:12.596Z,100.00
2023-05-03T18:01:41.032Z,100.00
2023-05-03T18:04:10.224Z,100.00
2023-05-03T18:06:39.194Z,100.00
2023-05-03T18:09:08.277Z,100.00
2023-05-03T18:11:37.099Z,100.00
2023-05-03T18:14:05.370Z,100.00
2023-05-03T18:16:33.628Z,100.00
2023-05-03T18:19:02.266Z,100.00
2023-05-03T18:21:31.120Z,100.00
2023-05-03T18:23:59.441Z,100.00
2023-05-03T18:26:27.696Z,100.00
2023-05-03T18:28:56.991Z,100.00
2023-05-03T18:31:25.553Z,100.00
2023-05-03T18:33:53.843Z,100.00
2023-05-03T18:36:24.098Z,100.00
2023-05-03T18:38:54.539Z,100.00
2023-05-03T18:41:23.229Z,100.00
2023-05-03T18:43:52.374Z,100.00
2023-05-03T18:46:22.385Z,100.00
2023-05-03T18:48:51.449Z,100.00
2023-05-03T18:51:19.852Z,100.00
2023-05-03T18:53:48.473Z,100.00
2023-05-03T18:56:16.825Z,100.00
2023-05-03T18:58:48.184Z,100.00
2023-05-03T19:01:16.707Z,100.00
2023-05-03T19:03:44.959Z,100.00
2023-05-03T19:06:14.421Z,100.00
2023-05-03T19:08:43.930Z,100.00
2023-05-03T19:11:14.792Z,100.00
2023-05-03T19:13:47.402Z,100.00
2023-05-03T19:16:16.474Z,100.00
2023-05-03T19:18:47.327Z,100.00
2023-05-03T19:21:19.781Z,100.00
2023-05-03T19:23:47.987Z,100.00
2023-05-03T19:26:16.246Z,100.00
2023-05-03T19:28:44.434Z,100.00
2023-05-03T19:31:12.833Z,100.00
2023-05-03T19:33:41.066Z,100.00
2023-05-03T19:36:14.928Z,100.00
2023-05-03T19:38:43.368Z,100.00
2023-05-03T19:41:14.456Z,100.00
2023-05-03T19:43:42.753Z,100.00
2023-05-03T19:46:11.244Z,100.00
2023-05-03T19:48:39.591Z,100.00
2023-05-03T19:51:13.520Z,100.00
2023-05-03T19:53:41.998Z,100.00
2023-05-03T19:56:10.332Z,100.00
2023-05-03T19:58:42.453Z,100.00
2023-05-03T20:01:10.730Z,100.00
2023-05-03T20:03:39.688Z,100.00
2023-05-03T20:06:08.075Z,100.00
2023-05-03T20:08:37.237Z,100.00
2023-05-03T20:11:10.927Z,100.00
2023-05-03T20:13:41.665Z,100.00
2023-05-03T20:16:10.060Z,100.00
2023-05-03T20:18:39.046Z,100.00
2023-05-03T20:21:07.322Z,100.00
2023-05-03T20:23:35.514Z,100.00
2023-05-03T20:26:03.712Z,100.00
2023-05-03T20:28:35.175Z,100.00
2023-05-03T20:31:04.152Z,100.00
2023-05-03T20:33:33.257Z,100.00
2023-05-03T20:36:01.711Z,100.00
2023-05-03T20:38:29.896Z,100.00
2023-05-03T20:40:58.157Z,100.00
2023-05-03T20:43:26.378Z,100.00
2023-05-03T20:45:54.824Z,100.00
2023-05-03T20:48:23.778Z,100.00
2023-05-03T20:50:52.000Z,100.00
2023-05-03T20:53:21.277Z,100.00
2023-05-03T20:56:00.435Z,100.00
2023-05-03T20:58:28.652Z,100.00
2023-05-03T21:00:58.020Z,100.00
2023-05-03T21:03:26.694Z,100.00
2023-05-03T21:05:56.626Z,100.00
2023-05-03T21:08:25.054Z,100.00
2023-05-03T21:10:53.815Z,100.00
2023-05-03T21:13:22.136Z,100.00
2023-05-03T21:15:51.121Z,100.00
2023-05-03T21:18:19.707Z,100.00
2023-05-03T21:20:48.008Z,100.00
2023-05-03T21:23:16.306Z,100.00
2023-05-03T21:25:44.565Z,100.00
2023-05-03T21:28:12.737Z,100.00
2023-05-03T21:30:42.457Z,100.00
2023-05-03T21:33:10.740Z,100.00
2023-05-03T21:35:41.076Z,100.00
2023-05-03T21:38:11.822Z,100.00
2023-05-03T21:40:40.156Z,100.00
2023-05-03T21:43:09.988Z,100.00
2023-05-03T21:45:42.529Z,100.00
2023-05-03T21:48:10.908Z,100.00
2023-05-03T21:50:40.361Z,100.00
2023-05-03T21:53:08.546Z,100.00
2023-05-03T21:55:36.929Z,100.00
2023-05-03T21:58:06.605Z,100.00
2023-05-03T22:00:36.341Z,100.00
2023-05-03T22:03:04.668Z,100.00
2023-05-03T22:05:33.402Z,100.00
2023-05-03T22:08:01.959Z,100.00
2023-05-03T22:10:30.136Z,100.00
2023-05-03T22:12:58.584Z,100.00
2023-05-03T22:15:26.865Z,100.00
2023-05-03T22:17:55.313Z,100.00
2023-05-03T22:20:23.587Z,100.00
2023-05-03T22:22:51.784Z,100.00
2023-05-03T22:25:24.455Z,100.00
2023-05-03T22:27:53.709Z,100.00
2023-05-03T22:30:22.270Z,100.00
2023-05-03T22:32:50.892Z,100.00
2023-05-03T22:35:19.362Z,100.00
2023-05-03T22:37:47.534Z,100.00
2023-05-03T22:40:15.821Z,100.00
2023-05-03T22:42:44.071Z,100.00
2023-05-03T22:45:12.246Z,100.00
2023-05-03T22:47:41.169Z,100.00
2023-05-03T22:50:10.554Z,100.00
2023-05-03T22:52:38.734Z,100.00
2023-05-03T22:55:08.238Z,100.00
2023-05-03T22:57:36.838Z,100.00
2023-05-03T23:00:06.838Z,100.00
2023-05-03T23:02:35.449Z,100.00
2023-05-03T23:05:04.008Z,100.00
2023-05-03T23:07:32.164Z,100.00
2023-05-03T23:10:05.251Z,100.00
2023-05-03T23:12:34.221Z,100.00
2023-05-03T23:15:02.542Z,100.00
2023-05-03T23:17:30.822Z,100.00
2023-05-03T23:19:59.030Z,100.00
2023-05-03T23:22:27.671Z,100.00
2023-05-03T23:24:55.881Z,100.00
2023-05-03T23:27:24.043Z,100.00
2023-05-03T23:29:53.136Z,100.00
2023-05-03T23:32:22.118Z,100.00
2023-05-03T23:34:51.035Z,100.00
2023-05-03T23:37:19.452Z,100.00
2023-05-03T23:39:47.938Z,100.00
2023-05-03T23:42:18.180Z,100.00
2023-05-03T23:44:55.501Z,100.00
2023-05-03T23:47:24.649Z,100.00
2023-05-03T23:49:53.588Z,100.00
2023-05-03T23:52:21.813Z,100.00
2023-05-03T23:54:50.096Z,100.00
2023-05-03T23:57:18.333Z,100.00
2023-05-03T23:59:46.749Z,100.00
